Aeroporto :
LOGIN :

Iscrizione | Disclaimer

   EN    FR    IT 

 










Sommario :    VFR   VFR Marginale   IFR   IFR Intensivo   IFR Molto Intensivo
Visibilità : 
Base nubi : 
>= 8 km
>= 3000ft
5 / 8 km
1000 / 3000 ft
1500m / 5 km
500 / 1000 ft
800 / 1500m
200 / 500 ft
< 800m
< 200 ft
Simboli :   Temporali  Nebbia  Neve Forte  Precipitazioni Forti  Vento > 20 kt
SIGMETs :   Varie  Temporali  Ghiacco  Turbolenza  Onda orograficha  Ceneri Vulcaniche







- Altitudine del aeroporto : 288 ft
- Codice IATA : BZZ


EGVN - RAF Brize Norton

ULTIMO METAR :
  • 191220Z 20012KT 9999 BKN010 BKN018 18/16 Q1009 BECMG BKN020 RMK GRN BECMG WHT

METARs OBSOLETI :
  • 191150Z 20010KT 9999 SCT010 BKN019 18/16 Q1009 BECMG FEW010 BKN020 RMK GRN BECMG WHT
  • 191120Z 20011KT 9999 -RA SCT010 SCT018 BKN080 17/16 Q1009 BECMG BKN020 RMK GRN BECMG WHT
  • 191050Z 19014G25KT 9999 SCT010 SCT023 BKN080 16/15 Q1008 TEMPO 5000 RA
  • 191020Z 19007KT 9999 -RA SCT010 BKN017 15/14 Q1010 TEMPO 5000 RA RMK GRN TEMPO GRN
  • 190950Z 17006KT 9999 -RA SCT010 BKN022 15/14 Q1010 RERA TEMPO 3500 +RA SCT006 BKN010 RMK GRN TEMPO YLO1
  • 190933Z 19006KT 7000 RA SCT007 SCT022 BKN030 15/14 Q1010 RERA TEMPO 3500 +RA SCT006 BKN010 RMK GRN TEMPO YLO1

TAF TAF EGVN
Valido dal 19 a 12 ore il 20 a 12 ore UTC


191052Z 1912/2012 20012KT 9999 SCT010 BKN020
BECMG 1912/1915 BKN025
PROB40
TEMPO 1912/1915 5000 RA
PROB40
TEMPO 1915/1922 4000 SHRA BKN012TCU
PROB30
TEMPO 1922/2010 SCT010
Nessun NOTAM noto per questo aeroporto.



MetMap, La meteo Aeronautica in un colpo d'occhio ! - Copyright ORBIFLY Dicembre 2007 - Disclaimer

ORBIFLY MET'MAP TEAM :

Programmazione e sviluppo : Alexandra Zaïnal
Concezione e sviluppo : Baudouin d'Aumeries
Co-Programmazione e sviluppo : Marc-Olivier Méhu
Supporto tecnico e logistico : Manuel Goepfert
Aiuto per la traduzione : Arnaldo La Scala

Contatto : metmap@orbifly.com




FONTI E CREDITI :

   NOAA